createdAt,value
2023-03-02T00:02:01.336Z,11.70
2023-03-02T00:04:34.753Z,10.73
2023-03-02T00:07:08.015Z,12.07
2023-03-02T00:09:35.151Z,11.50
2023-03-02T00:12:04.924Z,12.20
2023-03-02T00:14:33.816Z,12.27
2023-03-02T00:17:04.886Z,11.98
2023-03-02T00:19:31.492Z,12.32
2023-03-02T00:22:00.813Z,11.95
2023-03-02T00:24:29.705Z,12.32
2023-03-02T00:26:56.549Z,12.27
2023-03-02T00:29:25.411Z,12.82
2023-03-02T00:31:52.087Z,11.73
2023-03-02T00:34:18.732Z,11.18
2023-03-02T00:36:49.478Z,12.20
2023-03-02T00:39:20.116Z,11.97
2023-03-02T00:41:49.398Z,12.57
2023-03-02T00:44:19.573Z,11.93
2023-03-02T00:46:48.917Z,10.93
2023-03-02T00:49:15.536Z,11.80
2023-03-02T00:51:42.045Z,11.80
2023-03-02T00:54:08.783Z,13.13
2023-03-02T00:56:35.776Z,12.35
2023-03-02T00:59:07.192Z,11.65
2023-03-02T01:01:38.983Z,11.32
2023-03-02T01:04:08.763Z,11.77
2023-03-02T01:06:47.275Z,12.15
2023-03-02T01:09:13.829Z,12.35
2023-03-02T01:11:42.459Z,11.38
2023-03-02T01:14:08.976Z,10.65
2023-03-02T01:16:36.019Z,13.43
2023-03-02T01:19:02.865Z,13.73
2023-03-02T01:21:31.834Z,13.63
2023-03-02T01:23:58.380Z,11.30
2023-03-02T01:26:25.061Z,11.68
2023-03-02T01:28:55.443Z,11.30
2023-03-02T01:31:23.310Z,11.93
2023-03-02T01:33:52.401Z,13.43
2023-03-02T01:36:19.095Z,11.20
2023-03-02T01:38:45.876Z,12.30
2023-03-02T01:41:14.988Z,12.23
2023-03-02T01:43:43.796Z,12.65
2023-03-02T01:46:22.037Z,13.30
2023-03-02T01:48:54.369Z,12.65
2023-03-02T01:51:24.031Z,13.07
2023-03-02T01:53:57.221Z,12.70
2023-03-02T01:56:31.787Z,12.38
2023-03-02T01:59:05.706Z,12.65
2023-03-02T02:01:36.427Z,12.68
2023-03-02T02:04:03.394Z,12.95
2023-03-02T02:06:39.339Z,11.93
2023-03-02T02:09:11.746Z,12.25
2023-03-02T02:11:41.024Z,12.35
2023-03-02T02:14:07.639Z,11.85
2023-03-02T02:16:35.997Z,12.43
2023-03-02T02:19:05.924Z,12.60
2023-03-02T02:21:32.487Z,12.88
2023-03-02T02:24:07.782Z,13.07
2023-03-02T02:26:44.947Z,12.38
2023-03-02T02:29:26.089Z,11.98
2023-03-02T02:32:19.801Z,11.77
2023-03-02T02:34:54.691Z,12.05
2023-03-02T02:37:42.401Z,12.00
2023-03-02T02:40:16.103Z,12.68
2023-03-02T02:42:47.967Z,13.45
2023-03-02T02:45:24.210Z,13.47
2023-03-02T02:47:53.836Z,14.80
2023-03-02T02:50:33.145Z,15.15
2023-03-02T02:53:06.507Z,14.73
2023-03-02T02:55:35.351Z,14.48
2023-03-02T02:58:11.416Z,20.07
2023-03-02T03:00:40.579Z,26.70
2023-03-02T03:03:40.205Z,24.05
2023-03-02T03:06:13.577Z,20.90
2023-03-02T03:08:46.073Z,22.35
2023-03-02T03:11:16.299Z,19.30
2023-03-02T03:13:46.987Z,17.83
2023-03-02T03:16:15.933Z,16.73
2023-03-02T03:18:46.887Z,14.98
2023-03-02T03:21:13.417Z,14.25
2023-03-02T03:23:42.058Z,15.00
2023-03-02T03:26:11.164Z,13.65
2023-03-02T03:28:37.799Z,15.90
2023-03-02T03:31:04.554Z,18.80
2023-03-02T03:33:33.772Z,18.35
2023-03-02T03:36:00.816Z,16.80
2023-03-02T03:38:27.759Z,16.33
2023-03-02T03:40:56.645Z,15.40
2023-03-02T03:43:25.865Z,17.23
2023-03-02T03:45:52.483Z,16.55
2023-03-02T03:48:19.356Z,13.63
2023-03-02T03:50:48.188Z,13.85
2023-03-02T03:53:14.747Z,14.13
2023-03-02T03:55:43.414Z,15.05
2023-03-02T03:58:12.290Z,14.45
2023-03-02T04:00:39.063Z,14.33
2023-03-02T04:03:05.629Z,14.18
2023-03-02T04:05:32.423Z,15.27
2023-03-02T04:08:02.209Z,14.05
2023-03-02T04:10:32.738Z,13.10
2023-03-02T04:12:59.417Z,12.97
2023-03-02T04:15:28.535Z,14.02
2023-03-02T04:18:00.277Z,14.60
2023-03-02T04:20:30.140Z,13.07
2023-03-02T04:22:59.691Z,14.20
2023-03-02T04:25:30.320Z,14.17
2023-03-02T04:27:57.190Z,13.23
2023-03-02T04:30:27.631Z,12.75
2023-03-02T04:32:57.550Z,13.27
2023-03-02T04:35:26.526Z,13.73
2023-03-02T04:37:55.400Z,12.80
2023-03-02T04:40:24.734Z,15.32
2023-03-02T04:42:53.817Z,14.05
2023-03-02T04:45:20.893Z,13.80
2023-03-02T04:47:47.420Z,13.02
2023-03-02T04:50:15.112Z,13.87
2023-03-02T04:52:42.068Z,13.43
2023-03-02T04:55:11.874Z,12.52
2023-03-02T04:57:38.429Z,14.32
2023-03-02T05:00:09.871Z,12.10
2023-03-02T05:02:38.689Z,12.80
2023-03-02T05:05:05.642Z,12.70
2023-03-02T05:07:32.347Z,13.80
2023-03-02T05:09:58.914Z,12.65
2023-03-02T05:12:27.687Z,13.20
2023-03-02T05:14:54.201Z,13.13
2023-03-02T05:17:20.753Z,13.77
2023-03-02T05:19:49.561Z,13.25
2023-03-02T05:22:16.157Z,12.63
2023-03-02T05:24:47.724Z,13.25
2023-03-02T05:27:14.281Z,11.87
2023-03-02T05:29:43.168Z,13.70
2023-03-02T05:32:12.634Z,13.70
2023-03-02T05:34:41.473Z,12.57
2023-03-02T05:37:08.073Z,12.90
2023-03-02T05:39:34.628Z,14.20
2023-03-02T05:42:03.689Z,13.40
2023-03-02T05:44:30.244Z,14.40
2023-03-02T05:46:56.898Z,13.27
2023-03-02T05:49:26.040Z,13.07
2023-03-02T05:51:54.855Z,13.20
2023-03-02T05:54:21.352Z,13.98
2023-03-02T05:56:50.242Z,13.55
2023-03-02T05:59:16.917Z,13.27
2023-03-02T06:01:47.941Z,13.25
2023-03-02T06:04:14.497Z,12.17
2023-03-02T06:06:41.057Z,12.82
2023-03-02T06:09:07.693Z,13.60
2023-03-02T06:11:34.280Z,13.85
2023-03-02T06:14:02.936Z,14.35
2023-03-02T06:16:29.618Z,13.27
2023-03-02T06:18:58.510Z,12.27
2023-03-02T06:21:25.104Z,13.57
2023-03-02T06:23:51.634Z,14.68
2023-03-02T06:26:20.870Z,14.45
2023-03-02T06:28:52.486Z,14.00
2023-03-02T06:31:20.574Z,12.77
2023-03-02T06:33:49.734Z,13.95
2023-03-02T06:36:18.847Z,14.27
2023-03-02T06:38:45.857Z,12.40
2023-03-02T06:41:12.410Z,14.03
2023-03-02T06:43:38.992Z,12.65
2023-03-02T06:46:05.756Z,14.20
2023-03-02T06:48:37.218Z,12.45
2023-03-02T06:51:07.711Z,13.52
2023-03-02T06:53:34.277Z,13.23
2023-03-02T06:56:05.294Z,12.95
2023-03-02T06:58:31.889Z,12.45
2023-03-02T07:01:01.437Z,13.55
2023-03-02T07:03:31.366Z,13.98
2023-03-02T07:05:57.978Z,13.60
2023-03-02T07:08:24.634Z,13.43
2023-03-02T07:10:53.739Z,13.15
2023-03-02T07:13:22.611Z,12.75
2023-03-02T07:15:52.229Z,13.30
2023-03-02T07:18:20.980Z,13.20
2023-03-02T07:20:47.582Z,11.98
2023-03-02T07:23:16.657Z,13.05
2023-03-02T07:25:43.251Z,13.20
2023-03-02T07:28:09.827Z,13.27
2023-03-02T07:30:39.375Z,13.43
2023-03-02T07:33:08.257Z,13.60
2023-03-02T07:35:34.850Z,13.95
2023-03-02T07:38:03.802Z,14.13
2023-03-02T07:40:34.014Z,13.57
2023-03-02T07:43:05.416Z,12.47
2023-03-02T07:45:31.931Z,14.55
2023-03-02T07:47:58.478Z,13.40
2023-03-02T07:50:29.510Z,13.15
2023-03-02T07:52:59.948Z,13.63
2023-03-02T07:55:33.739Z,13.03
2023-03-02T07:58:00.311Z,13.70
2023-03-02T08:00:27.292Z,14.63
2023-03-02T08:02:56.135Z,13.32
2023-03-02T08:05:24.985Z,13.38
2023-03-02T08:07:51.614Z,14.43
2023-03-02T08:10:20.672Z,14.45
2023-03-02T08:12:47.237Z,14.93
2023-03-02T08:15:13.795Z,15.50
2023-03-02T08:17:42.856Z,13.77
2023-03-02T08:20:10.151Z,14.43
2023-03-02T08:22:39.713Z,14.43
2023-03-02T08:25:07.393Z,13.38
2023-03-02T08:27:34.013Z,14.15
2023-03-02T08:30:00.620Z,14.02
2023-03-02T08:32:27.389Z,13.83
2023-03-02T08:34:56.422Z,13.52
2023-03-02T08:37:25.575Z,13.05
2023-03-02T08:39:52.122Z,14.38
2023-03-02T08:42:18.678Z,13.48
2023-03-02T08:44:45.359Z,13.53
2023-03-02T08:47:11.986Z,14.82
2023-03-02T08:49:38.717Z,14.73
2023-03-02T08:52:07.837Z,14.55
2023-03-02T08:54:34.672Z,15.13
2023-03-02T08:57:04.451Z,13.63
2023-03-02T08:59:31.026Z,15.02
2023-03-02T09:02:02.141Z,14.95
2023-03-02T09:04:28.967Z,14.23
2023-03-02T09:06:55.507Z,12.90
2023-03-02T09:09:22.037Z,15.20
2023-03-02T09:11:48.618Z,14.27
2023-03-02T09:14:15.432Z,13.52
2023-03-02T09:16:42.161Z,14.57
2023-03-02T09:19:17.022Z,14.07
2023-03-02T09:21:43.565Z,14.80
2023-03-02T09:24:12.392Z,14.55
2023-03-02T09:26:41.336Z,13.23
2023-03-02T09:29:08.704Z,12.68
2023-03-02T09:31:36.965Z,13.25
2023-03-02T09:34:06.798Z,13.93
2023-03-02T09:36:36.520Z,14.30
2023-03-02T09:39:09.396Z,13.00
2023-03-02T09:41:54.598Z,13.02
2023-03-02T09:44:33.097Z,14.00
2023-03-02T09:47:35.082Z,13.23
2023-03-02T09:50:12.255Z,13.70
2023-03-02T09:52:49.872Z,11.15
2023-03-02T09:55:19.892Z,13.15
2023-03-02T09:57:49.349Z,13.80
2023-03-02T10:00:43.968Z,13.60
2023-03-02T10:03:23.303Z,14.15
2023-03-02T10:05:52.430Z,12.98
2023-03-02T10:08:22.765Z,15.52
2023-03-02T10:10:54.604Z,13.75
2023-03-02T10:13:29.269Z,12.93
2023-03-02T10:15:59.017Z,13.73
2023-03-02T10:18:32.129Z,12.80
2023-03-02T10:21:21.584Z,14.80
2023-03-02T10:23:57.389Z,13.25
2023-03-02T10:26:41.919Z,12.33
2023-03-02T10:29:21.874Z,14.32
2023-03-02T10:31:55.674Z,14.02
2023-03-02T10:34:26.648Z,14.40
2023-03-02T10:36:55.316Z,14.70
2023-03-02T10:39:21.822Z,14.43
2023-03-02T10:42:04.595Z,15.18
2023-03-02T10:44:34.811Z,14.10
2023-03-02T10:47:04.436Z,13.65
2023-03-02T10:49:32.289Z,14.77
2023-03-02T10:52:05.004Z,14.07
2023-03-02T10:54:34.095Z,14.35
2023-03-02T10:57:13.430Z,16.08
2023-03-02T10:59:48.047Z,14.27
2023-03-02T11:02:23.339Z,15.35
2023-03-02T11:05:19.748Z,15.27
2023-03-02T11:07:57.456Z,14.85
2023-03-02T11:10:29.224Z,14.45
2023-03-02T11:12:55.988Z,14.57
2023-03-02T11:15:29.811Z,14.88
2023-03-02T11:18:07.719Z,14.83
2023-03-02T11:20:39.791Z,15.30
2023-03-02T11:23:15.618Z,14.50
2023-03-02T11:25:49.847Z,14.23
2023-03-02T11:28:33.229Z,15.57
2023-03-02T11:31:02.741Z,14.97
2023-03-02T11:33:42.984Z,15.18
2023-03-02T11:36:23.316Z,14.40
2023-03-02T11:38:55.154Z,14.27
2023-03-02T11:41:36.566Z,15.32
2023-03-02T11:44:18.769Z,15.07
2023-03-02T11:46:59.656Z,13.98
2023-03-02T11:49:46.510Z,14.70
2023-03-02T11:52:20.443Z,14.43
2023-03-02T11:54:51.468Z,15.13
2023-03-02T11:57:29.875Z,14.60
2023-03-02T11:59:58.509Z,14.77
2023-03-02T12:02:28.213Z,13.88
2023-03-02T12:05:07.339Z,14.45
2023-03-02T12:07:36.499Z,14.30
2023-03-02T12:10:06.348Z,16.53
2023-03-02T12:12:44.143Z,14.45
2023-03-02T12:15:37.576Z,14.65
2023-03-02T12:18:21.208Z,15.02
2023-03-02T12:21:06.383Z,14.40
2023-03-02T12:23:55.133Z,14.07
2023-03-02T12:26:21.679Z,15.65
2023-03-02T12:29:09.609Z,14.20
2023-03-02T12:31:53.671Z,14.65
2023-03-02T12:34:34.525Z,14.73
2023-03-02T12:37:27.994Z,13.93
2023-03-02T12:40:22.272Z,14.25
2023-03-02T12:43:27.386Z,14.90
2023-03-02T12:46:05.216Z,13.80
2023-03-02T12:49:03.891Z,14.63
2023-03-02T12:51:46.169Z,14.02
2023-03-02T12:54:18.274Z,14.38
2023-03-02T12:56:45.752Z,13.98
2023-03-02T12:59:29.150Z,14.38
2023-03-02T13:02:29.730Z,14.20
2023-03-02T13:05:08.013Z,14.45
2023-03-02T13:08:01.184Z,14.77
2023-03-02T13:10:40.523Z,15.00
2023-03-02T13:13:25.001Z,15.32
2023-03-02T13:16:00.732Z,15.37
2023-03-02T13:18:36.395Z,13.45
2023-03-02T13:21:07.730Z,15.05
2023-03-02T13:23:34.525Z,15.05
2023-03-02T13:26:05.762Z,15.27
2023-03-02T13:28:38.140Z,16.73
2023-03-02T13:31:25.005Z,15.50
2023-03-02T13:33:56.255Z,14.23
2023-03-02T13:36:28.699Z,15.18
2023-03-02T13:38:59.281Z,14.80
2023-03-02T13:41:30.047Z,15.07
2023-03-02T13:44:10.877Z,14.52
2023-03-02T13:46:41.994Z,15.75
2023-03-02T13:49:11.501Z,15.07
2023-03-02T13:51:45.289Z,14.43
2023-03-02T13:54:28.736Z,14.07
2023-03-02T13:56:57.435Z,15.80
2023-03-02T13:59:24.180Z,16.00
2023-03-02T14:01:50.836Z,16.10
2023-03-02T14:04:23.419Z,15.93
2023-03-02T14:06:56.421Z,15.90
2023-03-02T14:09:23.037Z,15.80
2023-03-02T14:11:53.168Z,15.50
2023-03-02T14:14:25.210Z,16.45
2023-03-02T14:16:54.417Z,16.00
2023-03-02T14:19:21.359Z,15.23
2023-03-02T14:21:50.441Z,16.85
2023-03-02T14:24:17.056Z,17.33
2023-03-02T14:26:47.222Z,15.35
2023-03-02T14:29:13.738Z,15.13
2023-03-02T14:31:42.521Z,14.40
2023-03-02T14:34:16.466Z,15.68
2023-03-02T14:36:47.878Z,14.85
2023-03-02T14:39:53.417Z,14.18
2023-03-02T14:42:23.806Z,15.20
2023-03-02T14:44:53.931Z,14.07
2023-03-02T14:47:25.379Z,14.73
2023-03-02T14:49:54.644Z,15.05
2023-03-02T14:52:33.642Z,14.15
2023-03-02T14:55:04.455Z,14.32
2023-03-02T14:57:36.821Z,14.93
2023-03-02T15:00:04.821Z,14.50
2023-03-02T15:02:31.583Z,13.80
2023-03-02T15:04:58.233Z,13.32
2023-03-02T15:07:28.533Z,15.70
2023-03-02T15:09:56.827Z,13.60
2023-03-02T15:12:23.599Z,14.40
2023-03-02T15:14:50.193Z,14.00
2023-03-02T15:17:17.018Z,14.88
2023-03-02T15:19:46.115Z,13.40
2023-03-02T15:22:13.606Z,13.90
2023-03-02T15:24:40.636Z,14.65
2023-03-02T15:27:07.458Z,13.25
2023-03-02T15:29:34.157Z,14.35
2023-03-02T15:32:00.813Z,13.57
2023-03-02T15:34:32.154Z,13.77
2023-03-02T15:36:58.712Z,14.32
2023-03-02T15:39:25.306Z,13.93
2023-03-02T15:41:54.208Z,14.07
2023-03-02T15:44:23.943Z,13.73
2023-03-02T15:46:56.857Z,13.60
2023-03-02T15:49:27.197Z,15.20
2023-03-02T15:51:57.474Z,13.88
2023-03-02T15:54:25.983Z,14.60
2023-03-02T15:56:53.417Z,14.32
2023-03-02T15:59:28.812Z,13.10
2023-03-02T16:01:59.742Z,14.25
2023-03-02T16:04:29.893Z,15.15
2023-03-02T16:06:59.425Z,13.95
2023-03-02T16:09:28.804Z,12.55
2023-03-02T16:11:57.583Z,13.33
2023-03-02T16:14:26.716Z,13.65
2023-03-02T16:16:53.431Z,14.73
2023-03-02T16:19:25.084Z,14.38
2023-03-02T16:21:51.633Z,15.10
2023-03-02T16:24:20.732Z,12.83
2023-03-02T16:26:52.425Z,14.90
2023-03-02T16:29:19.019Z,13.85
2023-03-02T16:31:47.068Z,14.07
2023-03-02T16:34:13.749Z,13.15
2023-03-02T16:36:41.598Z,13.83
2023-03-02T16:39:11.897Z,13.45
2023-03-02T16:41:40.309Z,12.93
2023-03-02T16:44:14.654Z,13.55
2023-03-02T16:46:43.480Z,13.40
2023-03-02T16:49:14.043Z,12.87
2023-03-02T16:51:41.604Z,13.07
2023-03-02T16:54:10.398Z,12.50
2023-03-02T16:56:39.755Z,13.63
2023-03-02T16:59:06.311Z,13.15
2023-03-02T17:01:35.446Z,13.67
2023-03-02T17:04:06.007Z,14.13
2023-03-02T17:06:32.854Z,12.98
2023-03-02T17:08:59.455Z,12.70
2023-03-02T17:11:28.345Z,14.02
2023-03-02T17:13:54.880Z,13.20
2023-03-02T17:16:21.434Z,13.77
2023-03-02T17:18:48.061Z,13.82
2023-03-02T17:21:16.687Z,14.70
2023-03-02T17:23:50.260Z,13.45
2023-03-02T17:26:17.325Z,11.53
2023-03-02T17:28:46.334Z,13.15
2023-03-02T17:31:13.035Z,13.95
2023-03-02T17:33:39.750Z,13.45
2023-03-02T17:36:12.050Z,14.63
2023-03-02T17:38:42.455Z,14.07
2023-03-02T17:41:10.752Z,12.80
2023-03-02T17:43:39.616Z,12.57
2023-03-02T17:46:16.358Z,12.85
2023-03-02T17:48:49.265Z,13.00
2023-03-02T17:51:16.587Z,14.27
2023-03-02T17:53:47.904Z,12.73
2023-03-02T17:56:15.719Z,13.68
2023-03-02T17:58:46.116Z,13.07
2023-03-02T18:01:15.672Z,13.05
2023-03-02T18:03:47.340Z,11.97
2023-03-02T18:06:14.743Z,12.65
2023-03-02T18:08:41.390Z,13.63
2023-03-02T18:11:12.731Z,11.93
2023-03-02T18:13:40.267Z,13.38
2023-03-02T18:16:07.407Z,12.20
2023-03-02T18:18:34.615Z,13.23
2023-03-02T18:21:01.265Z,12.88
2023-03-02T18:23:28.012Z,13.18
2023-03-02T18:25:54.590Z,13.15
2023-03-02T18:28:21.294Z,12.93
2023-03-02T18:30:47.959Z,12.30
2023-03-02T18:33:17.511Z,13.73
2023-03-02T18:35:44.157Z,11.68
2023-03-02T18:38:10.739Z,12.57
2023-03-02T18:40:39.874Z,12.87
2023-03-02T18:43:06.500Z,12.93
2023-03-02T18:45:33.252Z,13.05
2023-03-02T18:48:03.178Z,12.55
2023-03-02T18:50:30.364Z,13.68
2023-03-02T18:52:57.076Z,13.50
2023-03-02T18:55:25.123Z,12.02
2023-03-02T18:57:54.941Z,12.63
2023-03-02T19:00:28.216Z,13.80
2023-03-02T19:02:56.106Z,12.98
2023-03-02T19:05:26.915Z,12.93
2023-03-02T19:07:54.814Z,14.25
2023-03-02T19:10:21.632Z,11.93
2023-03-02T19:12:48.265Z,13.32
2023-03-02T19:15:15.039Z,13.32
2023-03-02T19:17:43.340Z,13.47
2023-03-02T19:20:15.723Z,13.35
2023-03-02T19:22:42.473Z,12.60
2023-03-02T19:25:14.107Z,13.63
2023-03-02T19:27:43.117Z,12.40
2023-03-02T19:30:16.142Z,13.33
2023-03-02T19:32:44.768Z,12.88
2023-03-02T19:35:18.040Z,13.02
2023-03-02T19:37:45.069Z,13.00
2023-03-02T19:40:13.527Z,13.65
2023-03-02T19:42:45.238Z,11.53
2023-03-02T19:45:18.232Z,11.40
2023-03-02T19:47:47.678Z,12.88
2023-03-02T19:50:17.703Z,13.85
2023-03-02T19:52:46.784Z,12.07
2023-03-02T19:55:14.966Z,13.17
2023-03-02T19:57:43.005Z,12.65
2023-03-02T20:00:14.879Z,11.40
2023-03-02T20:02:45.201Z,11.85
2023-03-02T20:05:11.939Z,12.15
2023-03-02T20:07:41.583Z,13.57
2023-03-02T20:10:09.729Z,12.43
2023-03-02T20:12:38.983Z,10.13
2023-03-02T20:15:10.844Z,10.57
2023-03-02T20:17:39.784Z,11.65
2023-03-02T20:20:07.671Z,12.27
2023-03-02T20:22:34.855Z,12.20
2023-03-02T20:25:01.391Z,11.90
2023-03-02T20:27:30.977Z,11.77
2023-03-02T20:29:57.774Z,11.50
2023-03-02T20:32:25.333Z,11.80
2023-03-02T20:34:52.408Z,11.25
2023-03-02T20:37:19.130Z,12.90
2023-03-02T20:39:47.963Z,12.18
2023-03-02T20:42:16.916Z,12.95
2023-03-02T20:44:43.512Z,11.90
2023-03-02T20:47:15.144Z,12.52
2023-03-02T20:49:42.584Z,11.95
2023-03-02T20:52:11.800Z,11.13
2023-03-02T20:54:43.202Z,11.63
2023-03-02T20:57:16.962Z,11.53
2023-03-02T20:59:45.898Z,12.55
2023-03-02T21:02:18.752Z,12.30
2023-03-02T21:04:46.080Z,14.18
2023-03-02T21:07:13.310Z,13.23
2023-03-02T21:09:42.763Z,14.00
2023-03-02T21:12:11.756Z,14.27
2023-03-02T21:14:41.221Z,13.25
2023-03-02T21:17:10.537Z,13.63
2023-03-02T21:19:39.380Z,13.20
2023-03-02T21:22:10.865Z,13.67
2023-03-02T21:24:37.450Z,13.23
2023-03-02T21:27:07.321Z,13.35
2023-03-02T21:29:36.396Z,12.68
2023-03-02T21:32:08.256Z,13.43
2023-03-02T21:34:37.887Z,12.83
2023-03-02T21:37:07.711Z,32.45
2023-03-02T21:39:34.312Z,21.10
2023-03-02T21:42:03.859Z,15.45
2023-03-02T21:44:34.994Z,14.80
2023-03-02T21:47:01.566Z,14.20
2023-03-02T21:49:28.380Z,14.50
2023-03-02T21:51:54.988Z,15.77
2023-03-02T21:54:21.551Z,16.00
2023-03-02T21:56:48.094Z,14.60
2023-03-02T21:59:16.852Z,14.53
2023-03-02T22:01:43.990Z,15.18
2023-03-02T22:04:11.397Z,14.57
2023-03-02T22:06:42.417Z,14.90
2023-03-02T22:09:13.441Z,14.70
2023-03-02T22:11:39.981Z,13.60
2023-03-02T22:14:15.088Z,14.57
2023-03-02T22:16:48.233Z,14.20
2023-03-02T22:19:32.884Z,15.00
2023-03-02T22:22:03.072Z,14.07
2023-03-02T22:24:33.144Z,13.30
2023-03-02T22:27:08.974Z,13.82
2023-03-02T22:29:42.892Z,13.40
2023-03-02T22:32:21.216Z,14.65
2023-03-02T22:34:50.937Z,14.15
2023-03-02T22:37:20.788Z,14.53
2023-03-02T22:39:49.375Z,14.07
2023-03-02T22:42:17.650Z,14.32
2023-03-02T22:44:51.717Z,12.88
2023-03-02T22:47:20.279Z,14.25
2023-03-02T22:49:56.374Z,13.53
2023-03-02T22:52:32.902Z,14.68
2023-03-02T22:55:02.563Z,13.65
2023-03-02T22:57:36.492Z,13.48
2023-03-02T23:00:39.513Z,14.35
2023-03-02T23:03:18.815Z,13.63
2023-03-02T23:05:49.121Z,15.18
2023-03-02T23:08:29.382Z,12.95
2023-03-02T23:10:59.235Z,13.73
2023-03-02T23:13:38.209Z,14.70
2023-03-02T23:16:39.557Z,14.20
2023-03-02T23:19:06.149Z,12.93
2023-03-02T23:21:44.409Z,14.07
2023-03-02T23:24:13.420Z,12.82
2023-03-02T23:26:43.007Z,14.15
2023-03-02T23:29:14.777Z,14.63
2023-03-02T23:31:43.968Z,13.98
2023-03-02T23:34:13.604Z,13.65
2023-03-02T23:36:40.236Z,13.90
2023-03-02T23:39:10.404Z,15.18
2023-03-02T23:41:39.230Z,13.57
2023-03-02T23:44:09.880Z,13.45
2023-03-02T23:46:39.099Z,14.38
2023-03-02T23:49:08.193Z,13.75
2023-03-02T23:51:35.163Z,14.50
2023-03-02T23:54:04.822Z,14.47
2023-03-02T23:56:31.741Z,14.65
2023-03-02T23:58:58.342Z,13.77
